Time;durP1;ratioP1;P1;durP2;ratioP2;P2;SDS_P1;SDS_P2;PMS_P1;PMS_P2;Temp;Humidity;BMP_temperature;BMP_pressure;BME280_temperature;BME280_humidity;BME280_pressure;Samples;Min_cycle;Max_cycle;Signal;HPM_P1;HPM_P2
2020/07/26 00:01:41;;;;;;;5.3;3.1;;;;;;;19.89;96.63184;954.6255;;;;
2020/07/26 00:04:07;;;;;;;3.1;2.7;;;;;;;19.88;95.85547;954.5605;;;;
2020/07/26 00:06:33;;;;;;;4.1;2.7;;;;;;;19.8;95.60059;954.5535;;;;
2020/07/26 00:08:58;;;;;;;6.4;3.1;;;;;;;19.89;96.14941;954.5281;;;;
2020/07/26 00:11:24;;;;;;;5.4;3.1;;;;;;;19.82;97.51074;954.5463;;;;
2020/07/26 00:13:49;;;;;;;4.2;2.8;;;;;;;19.77;97.25195;954.5053;;;;
2020/07/26 00:16:14;;;;;;;4.1;2.7;;;;;;;19.67;97.10156;954.517;;;;
2020/07/26 00:18:39;;;;;;;4.6;3;;;;;;;19.61;94.66699;954.4695;;;;
2020/07/26 00:21:04;;;;;;;4.9;2.8;;;;;;;19.65;95.64063;954.4853;;;;
2020/07/26 00:23:30;;;;;;;4.8;2.8;;;;;;;19.59;97.40332;954.4146;;;;
2020/07/26 00:25:55;;;;;;;5.5;3;;;;;;;19.64;95.3916;954.4025;;;;
2020/07/26 00:28:21;;;;;;;6.2;2.6;;;;;;;19.69;95.14258;954.3463;;;;
2020/07/26 00:30:47;;;;;;;5;2.9;;;;;;;19.68;97.38574;954.3284;;;;
2020/07/26 00:33:14;;;;;;;4.4;2.8;;;;;;;19.61;98.28809;954.3825;;;;
2020/07/26 00:35:39;;;;;;;4.2;2.6;;;;;;;19.58;98.43262;954.3405;;;;
2020/07/26 00:38:04;;;;;;;4.4;2.8;;;;;;;19.51;96.56055;954.3447;;;;
2020/07/26 00:40:33;;;;;;;5.4;2.8;;;;;;;19.56;96.51367;954.3376;;;;
2020/07/26 00:42:59;;;;;;;3.6;2.6;;;;;;;19.6;96.52148;954.3448;;;;
2020/07/26 00:45:32;;;;;;;4.5;2.8;;;;;;;19.59;97.71973;954.2658;;;;
2020/07/26 00:47:57;;;;;;;3.7;2.7;;;;;;;19.6;96.11035;954.2954;;;;
2020/07/26 00:50:22;;;;;;;4.6;2.7;;;;;;;19.48;96.8252;954.2651;;;;
2020/07/26 00:52:51;;;;;;;3.9;2.4;;;;;;;19.57;95.42285;954.2085;;;;
2020/07/26 00:55:16;;;;;;;3.4;2.5;;;;;;;19.52;94.55566;954.2071;;;;
2020/07/26 00:57:43;;;;;;;4.5;2.7;;;;;;;19.5;95.85449;954.1688;;;;
2020/07/26 01:00:13;;;;;;;3.5;2.6;;;;;;;19.41;96.32813;954.1526;;;;
2020/07/26 01:02:38;;;;;;;4.8;2.6;;;;;;;19.43;95.55469;954.1722;;;;
2020/07/26 01:05:03;;;;;;;4.3;2.6;;;;;;;19.44;96.39258;954.133;;;;
2020/07/26 01:07:31;;;;;;;4;2.7;;;;;;;19.45;95.06738;954.1024;;;;
2020/07/26 01:09:58;;;;;;;4.1;2.5;;;;;;;19.42;97.19922;954.0641;;;;
2020/07/26 01:12:24;;;;;;;4.5;2.7;;;;;;;19.37;97.18945;954.0496;;;;
2020/07/26 01:14:51;;;;;;;3.3;2.5;;;;;;;19.34;98.97754;954.0396;;;;
2020/07/26 01:17:16;;;;;;;3.5;2.8;;;;;;;19.32;98.7627;954.0168;;;;
2020/07/26 01:19:44;;;;;;;3;2.5;;;;;;;19.41;98.85059;953.9892;;;;
2020/07/26 01:22:09;;;;;;;4.3;2.4;;;;;;;19.39;98.12109;953.9732;;;;
2020/07/26 01:24:34;;;;;;;3.8;2.4;;;;;;;19.39;98.42578;953.9938;;;;
2020/07/26 01:26:59;;;;;;;4.4;2.6;;;;;;;19.36;98.6416;953.9749;;;;
2020/07/26 01:29:25;;;;;;;4.5;2.7;;;;;;;19.33;99.61914;953.9658;;;;
2020/07/26 01:31:51;;;;;;;4.7;2.8;;;;;;;19.33;100;953.9333;;;;
2020/07/26 01:34:18;;;;;;;4.1;2.8;;;;;;;19.33;99.42188;953.9788;;;;
2020/07/26 01:36:43;;;;;;;3.9;2.8;;;;;;;19.24;100;953.9916;;;;
2020/07/26 01:39:11;;;;;;;3.9;2.8;;;;;;;19.34;98.4375;953.9808;;;;
2020/07/26 01:41:37;;;;;;;4.2;2.5;;;;;;;19.23;98.87305;954.0093;;;;
2020/07/26 01:44:02;;;;;;;3.6;2.6;;;;;;;19.23;98.83398;953.9935;;;;
2020/07/26 01:46:28;;;;;;;3.8;2.6;;;;;;;19.23;99.33887;953.9984;;;;
2020/07/26 01:48:53;;;;;;;4.1;2.6;;;;;;;19.24;98.56836;954.0016;;;;
2020/07/26 01:51:19;;;;;;;4.4;2.9;;;;;;;19.26;98.9834;953.9697;;;;
2020/07/26 01:53:44;;;;;;;3.6;2.8;;;;;;;19.21;98.8418;953.9695;;;;
2020/07/26 01:56:10;;;;;;;4;2.6;;;;;;;19.05;100;953.9307;;;;
2020/07/26 01:58:35;;;;;;;3.5;2.6;;;;;;;19.02;100;953.8867;;;;
2020/07/26 02:01:04;;;;;;;4.2;2.8;;;;;;;19.02;100;953.9281;;;;
2020/07/26 02:03:29;;;;;;;4.4;2.5;;;;;;;19.06;100;953.9002;;;;
2020/07/26 02:05:54;;;;;;;4.8;2.7;;;;;;;18.89;100;953.8983;;;;
2020/07/26 02:08:21;;;;;;;3;2.5;;;;;;;18.85;100;953.9626;;;;
2020/07/26 02:10:46;;;;;;;3;2.5;;;;;;;18.86;100;953.9674;;;;
2020/07/26 02:13:12;;;;;;;3.1;2.4;;;;;;;18.92;100;953.913;;;;
2020/07/26 02:15:47;;;;;;;4.4;2.3;;;;;;;18.82;100;953.9526;;;;
2020/07/26 02:18:14;;;;;;;3.5;2.4;;;;;;;18.86;100;953.9467;;;;
2020/07/26 02:20:39;;;;;;;4.1;2.4;;;;;;;18.84;100;953.9553;;;;
2020/07/26 02:23:05;;;;;;;4.2;2.6;;;;;;;18.87;100;953.9802;;;;
2020/07/26 02:25:30;;;;;;;4;2.5;;;;;;;18.83;100;953.9944;;;;
2020/07/26 02:28:01;;;;;;;4.5;2.6;;;;;;;18.59;100;953.9316;;;;
2020/07/26 02:30:43;;;;;;;3.6;2.4;;;;;;;18.75;100;953.9309;;;;
2020/07/26 02:33:13;;;;;;;3.5;2.5;;;;;;;18.69;100;953.9294;;;;
2020/07/26 02:35:38;;;;;;;4.1;2.5;;;;;;;18.63;100;953.9124;;;;
2020/07/26 02:38:05;;;;;;;4.4;2.2;;;;;;;18.82;100;953.8741;;;;
2020/07/26 02:40:30;;;;;;;3.5;2.3;;;;;;;18.81;100;953.8404;;;;
2020/07/26 02:42:56;;;;;;;4.5;2.3;;;;;;;18.8;100;953.8301;;;;
2020/07/26 02:45:27;;;;;;;4.5;2.4;;;;;;;18.91;100;953.8599;;;;
2020/07/26 02:47:52;;;;;;;3.5;2.2;;;;;;;18.67;100;953.8822;;;;
2020/07/26 02:50:22;;;;;;;4.8;2.1;;;;;;;18.79;100;953.8625;;;;
2020/07/26 02:52:47;;;;;;;3.8;2.2;;;;;;;18.67;100;953.9117;;;;
2020/07/26 02:55:13;;;;;;;4.5;2.1;;;;;;;18.57;100;953.9171;;;;
2020/07/26 02:57:38;;;;;;;4.2;2.3;;;;;;;18.52;100;953.8878;;;;
2020/07/26 03:00:08;;;;;;;3.3;2;;;;;;;18.6;100;953.8842;;;;
2020/07/26 03:02:33;;;;;;;3.1;2;;;;;;;18.62;100;953.8452;;;;
2020/07/26 03:05:01;;;;;;;3;2.2;;;;;;;18.65;100;953.9197;;;;
2020/07/26 03:07:26;;;;;;;2.9;2.1;;;;;;;18.5;100;953.8749;;;;
2020/07/26 03:09:52;;;;;;;3.3;2.2;;;;;;;18.61;100;953.918;;;;
2020/07/26 03:12:17;;;;;;;3;2.1;;;;;;;18.68;100;953.8215;;;;
2020/07/26 03:14:43;;;;;;;3;2.3;;;;;;;18.77;100;953.8098;;;;
2020/07/26 03:17:08;;;;;;;4.3;1.9;;;;;;;18.8;100;953.8151;;;;
2020/07/26 03:19:36;;;;;;;3.1;1.9;;;;;;;18.78;100;953.7874;;;;
2020/07/26 03:22:01;;;;;;;2.8;2;;;;;;;18.8;100;953.8125;;;;
2020/07/26 03:24:29;;;;;;;3.7;2.4;;;;;;;18.61;100;953.7399;;;;
2020/07/26 03:26:54;;;;;;;3.8;2.3;;;;;;;18.79;100;953.7278;;;;
2020/07/26 03:29:22;;;;;;;3.5;2.1;;;;;;;18.83;100;953.7112;;;;
2020/07/26 03:31:47;;;;;;;5.2;2.1;;;;;;;18.81;100;953.7411;;;;
2020/07/26 03:34:12;;;;;;;3.4;2.3;;;;;;;18.76;100;953.6873;;;;
2020/07/26 03:36:40;;;;;;;3.7;2.2;;;;;;;18.85;100;953.7531;;;;
2020/07/26 03:39:05;;;;;;;4;2.1;;;;;;;18.84;100;953.8002;;;;
2020/07/26 03:41:32;;;;;;;4.4;2.2;;;;;;;18.53;100;953.8091;;;;
2020/07/26 03:43:57;;;;;;;4.3;1.8;;;;;;;18.66;100;953.7725;;;;
2020/07/26 03:46:24;;;;;;;4.3;1.9;;;;;;;18.62;100;953.7883;;;;
2020/07/26 03:48:49;;;;;;;3.8;1.9;;;;;;;18.65;100;953.7817;;;;
2020/07/26 03:51:14;;;;;;;4.4;1.9;;;;;;;18.63;100;953.7822;;;;
2020/07/26 03:53:42;;;;;;;3.7;1.7;;;;;;;18.71;100;953.7234;;;;
2020/07/26 03:56:08;;;;;;;2.7;2.1;;;;;;;18.68;100;953.7678;;;;
2020/07/26 03:58:35;;;;;;;2.8;1.7;;;;;;;18.78;100;953.6628;;;;
2020/07/26 04:02:27;;;;;;;1.9;1.5;;;;;;;18.86;100;953.7081;;;;
2020/07/26 04:04:55;;;;;;;4.5;1.7;;;;;;;18.81;100;953.8017;;;;
2020/07/26 04:07:20;;;;;;;4.8;1.6;;;;;;;18.59;100;953.9242;;;;
2020/07/26 04:09:45;;;;;;;3.9;1.9;;;;;;;18.68;100;953.9191;;;;
2020/07/26 04:12:13;;;;;;;2;1.6;;;;;;;18.69;100;953.9188;;;;
2020/07/26 04:14:38;;;;;;;3.6;1.7;;;;;;;18.52;100;953.9506;;;;
2020/07/26 04:17:04;;;;;;;3.4;1.8;;;;;;;18.58;100;953.9989;;;;
2020/07/26 04:19:29;;;;;;;5.2;1.9;;;;;;;18.49;100;954.0039;;;;
2020/07/26 04:21:57;;;;;;;3.5;1.8;;;;;;;18.53;100;953.9643;;;;
2020/07/26 04:24:22;;;;;;;5.3;1.8;;;;;;;18.54;100;954.021;;;;
2020/07/26 04:26:49;;;;;;;4.6;2.1;;;;;;;18.57;100;953.9706;;;;
2020/07/26 04:29:14;;;;;;;4;1.9;;;;;;;18.63;100;954.0133;;;;
2020/07/26 04:31:40;;;;;;;3;1.9;;;;;;;18.62;100;954.0212;;;;
2020/07/26 04:34:08;;;;;;;3.7;1.8;;;;;;;18.65;100;954.0179;;;;
2020/07/26 04:36:33;;;;;;;5.8;2;;;;;;;18.71;100;954.0572;;;;
2020/07/26 04:39:03;;;;;;;4.2;1.8;;;;;;;18.73;100;954.033;;;;
2020/07/26 04:41:32;;;;;;;3.8;1.9;;;;;;;18.8;100;954.0405;;;;
2020/07/26 04:43:57;;;;;;;4.1;2;;;;;;;18.86;100;954.1285;;;;
2020/07/26 04:46:26;;;;;;;4.5;2;;;;;;;18.75;100;954.2192;;;;
2020/07/26 04:48:51;;;;;;;4.1;2;;;;;;;18.87;100;954.2478;;;;
2020/07/26 04:51:21;;;;;;;4.8;1.7;;;;;;;18.9;100;954.4593;;;;
2020/07/26 04:53:50;;;;;;;3.5;1.8;;;;;;;18.91;100;954.622;;;;
2020/07/26 04:56:15;;;;;;;3.1;2;;;;;;;18.95;100;954.8431;;;;
2020/07/26 04:58:40;;;;;;;5.8;1.9;;;;;;;18.87;100;955.1132;;;;
2020/07/26 05:01:05;;;;;;;3.2;2.1;;;;;;;18.81;100;955.1903;;;;
2020/07/26 05:03:30;;;;;;;4;1.9;;;;;;;18.78;100;955.3297;;;;
2020/07/26 05:05:55;;;;;;;4.3;2.5;;;;;;;18.66;100;955.2327;;;;
2020/07/26 05:08:20;;;;;;;4.2;2.4;;;;;;;18.57;100;955.2147;;;;
2020/07/26 05:10:46;;;;;;;4.6;2.4;;;;;;;18.51;100;955.2695;;;;
2020/07/26 05:13:11;;;;;;;4.1;2.4;;;;;;;18.48;100;955.128;;;;
2020/07/26 05:15:42;;;;;;;4.1;2.3;;;;;;;18.28;100;955.0882;;;;
2020/07/26 05:18:10;;;;;;;4.4;2.1;;;;;;;18.29;100;955.0848;;;;
2020/07/26 05:20:35;;;;;;;5.7;2.3;;;;;;;18.18;100;954.9695;;;;
2020/07/26 05:23:01;;;;;;;6.1;2.7;;;;;;;18.29;100;954.8116;;;;
2020/07/26 05:25:26;;;;;;;3.9;2.6;;;;;;;18.2;100;954.7127;;;;
2020/07/26 05:27:52;;;;;;;4.3;2.8;;;;;;;18.15;100;954.6055;;;;
2020/07/26 05:30:17;;;;;;;4.2;2.6;;;;;;;17.91;100;954.4333;;;;
2020/07/26 05:32:42;;;;;;;4.1;3.1;;;;;;;17.9;100;954.4815;;;;
2020/07/26 05:35:12;;;;;;;5.3;3;;;;;;;17.89;100;954.7023;;;;
2020/07/26 05:37:38;;;;;;;4.5;2.9;;;;;;;17.89;100;954.9325;;;;
2020/07/26 05:40:04;;;;;;;3.9;3.1;;;;;;;17.89;100;955.0545;;;;
2020/07/26 05:42:31;;;;;;;5.7;3.6;;;;;;;17.81;100;955.3008;;;;
2020/07/26 05:44:56;;;;;;;4.4;3.3;;;;;;;17.85;100;955.5111;;;;
2020/07/26 05:47:23;;;;;;;4.8;3.1;;;;;;;17.9;100;955.7363;;;;
2020/07/26 05:49:48;;;;;;;4.7;3.2;;;;;;;17.93;100;955.8505;;;;
2020/07/26 05:52:14;;;;;;;4.7;3.3;;;;;;;17.64;100;955.9482;;;;
2020/07/26 05:54:40;;;;;;;5.4;3.5;;;;;;;17.69;100;955.8331;;;;
2020/07/26 05:57:05;;;;;;;6.4;4.6;;;;;;;17.65;100;955.7802;;;;
2020/07/26 05:59:30;;;;;;;5.1;4;;;;;;;17.5;100;955.8522;;;;
2020/07/26 06:01:55;;;;;;;6.2;3.9;;;;;;;17.58;100;955.9154;;;;
2020/07/26 06:04:22;;;;;;;4.1;3.4;;;;;;;17.64;100;956.1058;;;;
2020/07/26 06:06:47;;;;;;;5.4;3.8;;;;;;;17.62;100;956.1433;;;;
2020/07/26 06:09:13;;;;;;;4.3;3.6;;;;;;;17.32;100;956.256;;;;
2020/07/26 06:11:38;;;;;;;6.7;4.3;;;;;;;17.42;100;956.6007;;;;
2020/07/26 06:14:05;;;;;;;7.5;3.7;;;;;;;17.44;100;956.6786;;;;
2020/07/26 06:16:30;;;;;;;5.9;3.9;;;;;;;17.28;100;956.6947;;;;
2020/07/26 06:18:57;;;;;;;5.8;3.9;;;;;;;17.12;100;956.6348;;;;
2020/07/26 06:21:22;;;;;;;4.4;3.5;;;;;;;17.26;100;956.6819;;;;
2020/07/26 06:23:50;;;;;;;4.8;4.3;;;;;;;17.29;100;956.7217;;;;
2020/07/26 06:26:15;;;;;;;5.5;4;;;;;;;17.17;100;956.7042;;;;
2020/07/26 06:28:42;;;;;;;7;4.7;;;;;;;17.18;100;956.7649;;;;
2020/07/26 06:31:07;;;;;;;6.8;4.4;;;;;;;17.15;100;956.7299;;;;
2020/07/26 06:33:32;;;;;;;7.4;4.7;;;;;;;17.25;100;956.7961;;;;
2020/07/26 06:35:58;;;;;;;4.9;4.4;;;;;;;17.23;100;956.8606;;;;
2020/07/26 06:38:23;;;;;;;5.7;4.5;;;;;;;17.19;100;956.8983;;;;
2020/07/26 06:40:49;;;;;;;6.2;4.7;;;;;;;17.21;100;957.0183;;;;
2020/07/26 06:43:15;;;;;;;6;4.6;;;;;;;17.07;100;957.0583;;;;
2020/07/26 06:45:43;;;;;;;5.8;4.5;;;;;;;16.95;100;957.0686;;;;
2020/07/26 06:48:11;;;;;;;5.1;4.6;;;;;;;17.02;100;957.0532;;;;
2020/07/26 06:50:36;;;;;;;6.5;4.6;;;;;;;17.06;100;957.1064;;;;
2020/07/26 06:53:03;;;;;;;5;4.5;;;;;;;17;100;957.0237;;;;
2020/07/26 06:55:30;;;;;;;5.7;4.6;;;;;;;17.09;100;956.9835;;;;
2020/07/26 06:57:57;;;;;;;5.7;4.9;;;;;;;17.17;100;956.8861;;;;
2020/07/26 07:00:26;;;;;;;5.3;4.8;;;;;;;17.28;100;956.837;;;;
2020/07/26 07:02:54;;;;;;;5.5;5;;;;;;;17.37;100;956.733;;;;
2020/07/26 07:05:23;;;;;;;5;4.3;;;;;;;17.38;100;956.6243;;;;
2020/07/26 07:07:50;;;;;;;4.9;4.3;;;;;;;17.39;100;956.4867;;;;
2020/07/26 07:10:15;;;;;;;5.2;4.6;;;;;;;17.49;100;956.4497;;;;
2020/07/26 07:12:44;;;;;;;6.1;4.5;;;;;;;17.54;100;956.4203;;;;
2020/07/26 07:15:09;;;;;;;5.6;4.9;;;;;;;17.49;100;956.4604;;;;
2020/07/26 07:17:35;;;;;;;5.5;4.2;;;;;;;17.61;100;956.5208;;;;
2020/07/26 07:20:01;;;;;;;5;4.6;;;;;;;17.59;100;956.5012;;;;
2020/07/26 07:22:27;;;;;;;4.7;4.2;;;;;;;17.59;100;956.4799;;;;
2020/07/26 07:24:52;;;;;;;5.2;4.3;;;;;;;17.7;100;956.4799;;;;
2020/07/26 07:27:18;;;;;;;6.4;4;;;;;;;17.87;100;956.375;;;;
2020/07/26 07:29:43;;;;;;;4.3;3.5;;;;;;;17.93;100;956.3245;;;;
2020/07/26 07:32:12;;;;;;;4.6;3.8;;;;;;;17.93;100;956.3419;;;;
2020/07/26 07:34:37;;;;;;;5.2;3.7;;;;;;;17.96;100;956.4526;;;;
2020/07/26 07:37:02;;;;;;;3.7;3.3;;;;;;;17.94;100;956.4297;;;;
2020/07/26 07:39:27;;;;;;;4.4;3.7;;;;;;;18;100;956.438;;;;
2020/07/26 07:41:54;;;;;;;4.6;3.9;;;;;;;17.85;100;956.478;;;;
2020/07/26 07:44:19;;;;;;;5.7;4.2;;;;;;;17.89;100;956.5642;;;;
2020/07/26 07:46:44;;;;;;;5.1;4.1;;;;;;;17.9;100;956.551;;;;
2020/07/26 07:49:09;;;;;;;4.5;4;;;;;;;17.89;100;956.5377;;;;
2020/07/26 07:51:34;;;;;;;5.5;4.1;;;;;;;17.88;100;956.5073;;;;
2020/07/26 07:54:04;;;;;;;5.7;4.4;;;;;;;17.92;100;956.5441;;;;
2020/07/26 07:56:32;;;;;;;6.8;4.5;;;;;;;17.96;100;956.5937;;;;
2020/07/26 07:58:57;;;;;;;7.4;4.7;;;;;;;17.98;100;956.6099;;;;
2020/07/26 08:01:26;;;;;;;5.1;4.2;;;;;;;18.17;100;956.6326;;;;
2020/07/26 08:03:53;;;;;;;5.3;4.3;;;;;;;18.31;100;956.665;;;;
2020/07/26 08:06:18;;;;;;;6.2;4;;;;;;;18.35;100;956.7206;;;;
2020/07/26 08:08:44;;;;;;;5;3.9;;;;;;;18.39;100;956.7852;;;;
2020/07/26 08:11:09;;;;;;;5.5;3.8;;;;;;;18.35;100;956.8492;;;;
2020/07/26 08:13:35;;;;;;;5.1;3.9;;;;;;;18.24;100;956.8111;;;;
2020/07/26 08:16:00;;;;;;;4.1;3.7;;;;;;;18.35;100;956.8872;;;;
2020/07/26 08:18:25;;;;;;;5.3;3.9;;;;;;;18.46;100;956.8953;;;;
2020/07/26 08:20:52;;;;;;;5.7;3.8;;;;;;;18.54;100;956.9294;;;;
2020/07/26 08:23:17;;;;;;;4.5;4;;;;;;;18.63;100;956.9065;;;;
2020/07/26 08:25:44;;;;;;;3.9;3.4;;;;;;;18.81;100;956.9235;;;;
2020/07/26 08:28:09;;;;;;;4.8;3.3;;;;;;;18.89;100;956.933;;;;
2020/07/26 08:30:40;;;;;;;5.4;3.4;;;;;;;18.77;100;956.912;;;;
2020/07/26 08:33:07;;;;;;;4.2;3.4;;;;;;;18.85;100;956.905;;;;
2020/07/26 08:35:32;;;;;;;4.2;3.3;;;;;;;18.84;100;956.9338;;;;
2020/07/26 08:37:58;;;;;;;4.6;3.1;;;;;;;18.83;100;956.9523;;;;
2020/07/26 08:40:23;;;;;;;4;3;;;;;;;18.84;100;956.9453;;;;
2020/07/26 08:42:49;;;;;;;4.3;3.2;;;;;;;18.94;100;957.0867;;;;
2020/07/26 08:45:14;;;;;;;4.3;3.2;;;;;;;18.79;100;957.057;;;;
2020/07/26 08:47:41;;;;;;;4.5;3.1;;;;;;;19.01;100;957.0951;;;;
2020/07/26 08:50:06;;;;;;;4.7;3.4;;;;;;;19.24;100;957.0811;;;;
2020/07/26 08:52:32;;;;;;;3.8;2.9;;;;;;;19.5;100;957.0849;;;;
2020/07/26 08:54:58;;;;;;;3.7;2.6;;;;;;;19.41;100;957.1166;;;;
2020/07/26 08:57:24;;;;;;;5.1;2.8;;;;;;;19.3;100;957.0801;;;;
2020/07/26 08:59:49;;;;;;;5.5;3;;;;;;;19.33;100;957.0834;;;;
2020/07/26 09:02:16;;;;;;;3.1;2.8;;;;;;;19.42;100;957.028;;;;
2020/07/26 09:04:41;;;;;;;5.7;3.1;;;;;;;19.51;100;957.0229;;;;
2020/07/26 09:07:07;;;;;;;3.9;2.7;;;;;;;19.48;100;957.0402;;;;
2020/07/26 09:09:32;;;;;;;3.3;2.4;;;;;;;19.75;100;957.0351;;;;
2020/07/26 09:12:00;;;;;;;4.5;2.7;;;;;;;19.92;100;957.0892;;;;
2020/07/26 09:14:25;;;;;;;3.5;2.7;;;;;;;19.93;100;957.0013;;;;
2020/07/26 09:16:50;;;;;;;2.9;2.4;;;;;;;19.72;100;956.9958;;;;
2020/07/26 09:19:18;;;;;;;4.3;2.4;;;;;;;19.72;100;957.0298;;;;
2020/07/26 09:21:43;;;;;;;3.7;2.5;;;;;;;19.71;100;957.0562;;;;
2020/07/26 09:24:08;;;;;;;2.8;2.5;;;;;;;19.71;100;957.0861;;;;
2020/07/26 09:26:33;;;;;;;4.2;2.7;;;;;;;19.69;100;957.075;;;;
2020/07/26 09:28:59;;;;;;;4.3;2.5;;;;;;;19.75;100;957.0706;;;;
2020/07/26 09:31:24;;;;;;;4.5;2.8;;;;;;;19.95;100;957.0432;;;;
2020/07/26 09:33:54;;;;;;;3.9;2.7;;;;;;;20.08;100;957.1082;;;;
2020/07/26 09:36:19;;;;;;;2.6;2.2;;;;;;;20.17;100;957.1044;;;;
2020/07/26 09:38:45;;;;;;;2.4;1.9;;;;;;;20.28;100;957.048;;;;
2020/07/26 09:41:12;;;;;;;3.2;2.1;;;;;;;20.43;100;957.0145;;;;
2020/07/26 09:43:37;;;;;;;2.8;2.1;;;;;;;20.43;100;957.0478;;;;
2020/07/26 09:46:05;;;;;;;3.8;2.2;;;;;;;20.55;100;957.0667;;;;
2020/07/26 09:48:30;;;;;;;4.4;2.3;;;;;;;20.61;100;957.1017;;;;
2020/07/26 09:50:57;;;;;;;3.5;2.2;;;;;;;20.91;100;957.1299;;;;
2020/07/26 09:53:22;;;;;;;2.8;2.1;;;;;;;21.17;100;957.1424;;;;
2020/07/26 09:55:49;;;;;;;2.6;1.9;;;;;;;21.39;100;957.0655;;;;
2020/07/26 09:58:15;;;;;;;3.1;1.9;;;;;;;21.47;100;957.0765;;;;
2020/07/26 10:00:41;;;;;;;2.6;1.9;;;;;;;21.22;100;957.0822;;;;
2020/07/26 10:03:08;;;;;;;3.3;1.9;;;;;;;21.46;100;957.0845;;;;
2020/07/26 10:05:34;;;;;;;3.4;1.8;;;;;;;21.49;100;957.1258;;;;
2020/07/26 10:08:03;;;;;;;3.3;2;;;;;;;21.43;100;957.1462;;;;
2020/07/26 10:10:28;;;;;;;3.9;1.9;;;;;;;21.36;100;957.0639;;;;
2020/07/26 10:12:56;;;;;;;2.1;1.8;;;;;;;21.54;100;957.048;;;;
2020/07/26 10:15:26;;;;;;;2.4;2;;;;;;;21.68;100;957.0491;;;;
2020/07/26 10:17:54;;;;;;;4;2.1;;;;;;;21.62;100;957.1203;;;;
2020/07/26 10:20:19;;;;;;;3.7;1.8;;;;;;;21.74;100;957.1376;;;;
2020/07/26 10:22:44;;;;;;;2.3;1.9;;;;;;;21.89;100;957.1149;;;;
2020/07/26 10:25:12;;;;;;;2.9;1.9;;;;;;;21.99;100;957.1813;;;;
2020/07/26 10:27:41;;;;;;;3.2;1.9;;;;;;;22;100;957.1834;;;;
2020/07/26 10:30:24;;;;;;;3.2;1.6;;;;;;;22.09;100;957.1467;;;;
2020/07/26 10:32:53;;;;;;;3.7;2;;;;;;;22.16;100;957.1537;;;;
2020/07/26 10:35:25;;;;;;;2.5;2;;;;;;;22.15;100;957.1557;;;;
2020/07/26 10:37:52;;;;;;;3.8;2.3;;;;;;;21.94;100;957.0589;;;;
2020/07/26 10:40:17;;;;;;;2.9;1.6;;;;;;;22.09;100;956.9807;;;;
2020/07/26 10:42:42;;;;;;;2.2;2;;;;;;;22.14;100;957.0065;;;;
2020/07/26 10:45:07;;;;;;;4.9;1.7;;;;;;;22.14;100;956.9344;;;;
2020/07/26 10:47:34;;;;;;;2;1.7;;;;;;;22.25;100;956.9459;;;;
2020/07/26 10:49:59;;;;;;;3.2;1.8;;;;;;;22.08;99.47461;956.8716;;;;
2020/07/26 10:52:26;;;;;;;2.3;1.7;;;;;;;22.34;100;956.8735;;;;
2020/07/26 10:54:51;;;;;;;2.7;1.8;;;;;;;22.46;100;956.8845;;;;
2020/07/26 10:57:17;;;;;;;2.5;1.9;;;;;;;22.48;100;956.8217;;;;
2020/07/26 10:59:42;;;;;;;3.6;1.8;;;;;;;22.47;97.38477;956.8547;;;;
2020/07/26 11:02:09;;;;;;;2.7;1.6;;;;;;;22.63;97.58594;956.8766;;;;
2020/07/26 11:04:35;;;;;;;2.8;1.4;;;;;;;23.01;94.98242;956.8511;;;;
2020/07/26 11:07:00;;;;;;;2.7;1.6;;;;;;;23.21;84.50586;956.8812;;;;
2020/07/26 11:09:25;;;;;;;2.7;1.3;;;;;;;23.41;84.62598;956.9026;;;;
2020/07/26 11:11:52;;;;;;;1.6;1.3;;;;;;;23.46;83.81836;956.8752;;;;
2020/07/26 11:14:17;;;;;;;3.2;1.5;;;;;;;23.15;84.93262;956.8844;;;;
2020/07/26 11:16:44;;;;;;;2;1.4;;;;;;;23.3;84.53516;956.8633;;;;
2020/07/26 11:19:09;;;;;;;3;1.6;;;;;;;23.2;87.70215;956.791;;;;
2020/07/26 11:21:34;;;;;;;1.8;1.2;;;;;;;23.15;78.96289;956.8642;;;;
2020/07/26 11:23:59;;;;;;;1.7;1.2;;;;;;;23.34;76.63965;956.7712;;;;
2020/07/26 11:26:26;;;;;;;2.1;1.3;;;;;;;23.68;77.94336;956.7637;;;;
2020/07/26 11:28:52;;;;;;;1.9;1.3;;;;;;;23.87;73.51465;956.7747;;;;
2020/07/26 11:31:17;;;;;;;2.6;1.4;;;;;;;23.91;68.69336;956.7697;;;;
2020/07/26 11:33:42;;;;;;;2.1;1.1;;;;;;;23.75;70.57813;956.7658;;;;
2020/07/26 11:36:07;;;;;;;2.1;1.2;;;;;;;24.05;68.66797;956.6953;;;;
2020/07/26 11:38:32;;;;;;;2.8;1.2;;;;;;;24.04;68.31055;956.6805;;;;
2020/07/26 11:40:57;;;;;;;1.9;1.3;;;;;;;24.17;67.18945;956.6465;;;;
2020/07/26 11:43:22;;;;;;;1.8;1.3;;;;;;;24.18;71.39355;956.608;;;;
2020/07/26 11:45:47;;;;;;;1.4;1.2;;;;;;;24.07;68.81152;956.6589;;;;
2020/07/26 11:48:15;;;;;;;4.6;1.5;;;;;;;24.18;75.2168;956.653;;;;
2020/07/26 11:50:40;;;;;;;1.8;1.2;;;;;;;24.37;73.59863;956.6337;;;;
2020/07/26 11:53:08;;;;;;;2.9;1.5;;;;;;;24.54;70.62109;956.6088;;;;
2020/07/26 11:55:33;;;;;;;3.1;1.4;;;;;;;24.61;67.20898;956.6057;;;;
2020/07/26 11:57:58;;;;;;;1.6;1.2;;;;;;;24.37;66.95996;956.6353;;;;
2020/07/26 12:00:35;;;;;;;4.7;2.2;;;;;;;24.57;70.875;956.4941;;;;
2020/07/26 12:03:10;;;;;;;1.4;1.1;;;;;;;24.53;67.04199;956.5576;;;;
2020/07/26 12:05:36;;;;;;;2.3;1.2;;;;;;;24.63;68.28027;956.6278;;;;
2020/07/26 12:08:01;;;;;;;2.2;1.2;;;;;;;24.25;67.60547;956.6523;;;;
2020/07/26 12:10:27;;;;;;;1.7;1.2;;;;;;;24.28;71.08887;956.6348;;;;
2020/07/26 12:12:52;;;;;;;1.9;1.1;;;;;;;24.61;69.79883;956.6166;;;;
2020/07/26 12:15:25;;;;;;;1.6;1.2;;;;;;;24.58;67.14551;956.5859;;;;
2020/07/26 12:17:52;;;;;;;1.4;1;;;;;;;24.47;65.47754;956.5508;;;;
2020/07/26 12:20:17;;;;;;;1.9;1;;;;;;;24.88;67.15527;956.4203;;;;
2020/07/26 12:22:43;;;;;;;2.2;1;;;;;;;25.01;67.60254;956.4;;;;
2020/07/26 12:25:08;;;;;;;1.9;1.1;;;;;;;24.5;65.06543;956.4628;;;;
2020/07/26 12:27:34;;;;;;;1.3;1.1;;;;;;;24.42;67.46484;956.4601;;;;
2020/07/26 12:29:59;;;;;;;2.7;1.1;;;;;;;24.14;70.36719;956.4501;;;;
2020/07/26 12:32:26;;;;;;;2.2;1.1;;;;;;;23.99;69.6416;956.4645;;;;
2020/07/26 12:34:51;;;;;;;3;1.2;;;;;;;23.89;70.95605;956.5206;;;;
2020/07/26 12:37:18;;;;;;;2.5;1.2;;;;;;;23.65;78.04297;956.6129;;;;
2020/07/26 12:39:43;;;;;;;5.6;2.1;;;;;;;23.37;98.28223;956.7155;;;;
2020/07/26 12:42:08;;;;;;;4.3;1.9;;;;;;;22.21;100;956.894;;;;
2020/07/26 12:44:37;;;;;;;3.8;2;;;;;;;21.69;100;957.0977;;;;
2020/07/26 12:47:05;;;;;;;6;2.6;;;;;;;21.41;100;957.1189;;;;
2020/07/26 12:49:34;;;;;;;4.5;2.5;;;;;;;21.13;100;957.0705;;;;
2020/07/26 12:51:59;;;;;;;4.1;2.3;;;;;;;20.81;100;957.0578;;;;
2020/07/26 12:54:24;;;;;;;3.2;1.9;;;;;;;20.13;100;957.1672;;;;
2020/07/26 12:56:50;;;;;;;3.6;1.8;;;;;;;19.98;100;957.2881;;;;
2020/07/26 12:59:15;;;;;;;6.3;2.4;;;;;;;20.21;100;957.3792;;;;
2020/07/26 13:01:42;;;;;;;3.2;1.7;;;;;;;20.14;100;957.4476;;;;
2020/07/26 13:04:07;;;;;;;2.3;1.5;;;;;;;19.44;100;957.3931;;;;
2020/07/26 13:06:33;;;;;;;3.6;1.7;;;;;;;19.11;100;957.37;;;;
2020/07/26 13:08:58;;;;;;;2.3;1.4;;;;;;;18.7;100;957.3423;;;;
2020/07/26 13:11:23;;;;;;;2.7;1.5;;;;;;;18.42;100;957.2325;;;;
2020/07/26 13:13:49;;;;;;;2.2;1.5;;;;;;;18.46;100;957.1512;;;;
2020/07/26 13:16:15;;;;;;;3.6;1.6;;;;;;;18.46;100;957.1331;;;;
2020/07/26 13:18:44;;;;;;;1.8;1.3;;;;;;;18.41;100;956.9358;;;;
2020/07/26 13:21:11;;;;;;;2.1;1.6;;;;;;;18.54;100;956.7601;;;;
2020/07/26 13:23:36;;;;;;;2.4;1.6;;;;;;;18.76;100;956.8139;;;;
2020/07/26 13:26:02;;;;;;;2.5;1.6;;;;;;;18.98;100;956.7776;;;;
2020/07/26 13:28:27;;;;;;;1.5;1.2;;;;;;;19.23;100;956.8474;;;;
2020/07/26 13:30:57;;;;;;;1.8;1.3;;;;;;;19.28;100;956.9449;;;;
2020/07/26 13:33:25;;;;;;;2.2;1.7;;;;;;;19.38;100;956.8932;;;;
2020/07/26 13:35:50;;;;;;;2;1.6;;;;;;;19.36;100;956.9044;;;;
2020/07/26 13:38:16;;;;;;;2.2;1.8;;;;;;;19.38;100;956.8973;;;;
2020/07/26 13:40:41;;;;;;;2.8;1.7;;;;;;;19.29;100;957.0148;;;;
2020/07/26 13:43:06;;;;;;;1.9;1.5;;;;;;;19.35;100;957.0442;;;;
2020/07/26 13:45:31;;;;;;;2.8;1.5;;;;;;;19.39;100;956.9188;;;;
2020/07/26 13:47:58;;;;;;;2;1.3;;;;;;;19.41;100;956.9288;;;;
2020/07/26 13:50:23;;;;;;;3.6;1.4;;;;;;;19.44;100;956.9153;;;;
2020/07/26 13:52:49;;;;;;;2.8;1.5;;;;;;;19.33;100;956.9522;;;;
2020/07/26 13:55:15;;;;;;;3.4;1.5;;;;;;;19.31;100;957.0044;;;;
2020/07/26 13:57:41;;;;;;;2.4;1.5;;;;;;;19.22;100;956.954;;;;
2020/07/26 14:00:06;;;;;;;2.4;1.5;;;;;;;19.13;100;956.8642;;;;
2020/07/26 14:02:32;;;;;;;3.2;1.3;;;;;;;19.2;100;956.7522;;;;
2020/07/26 14:04:57;;;;;;;2.8;1.4;;;;;;;19.21;100;956.7181;;;;
2020/07/26 14:07:23;;;;;;;2.4;1.5;;;;;;;19.22;100;956.7492;;;;
2020/07/26 14:09:48;;;;;;;1.8;1.4;;;;;;;19.21;100;956.8362;;;;
2020/07/26 14:12:15;;;;;;;1.4;1.2;;;;;;;19.16;100;956.757;;;;
2020/07/26 14:14:40;;;;;;;1.3;1.2;;;;;;;19.2;100;956.7488;;;;
2020/07/26 14:17:05;;;;;;;2.9;1.4;;;;;;;19.11;100;956.7877;;;;
2020/07/26 14:19:31;;;;;;;2.8;1.5;;;;;;;19.17;100;956.6757;;;;
2020/07/26 14:21:56;;;;;;;2.8;1.7;;;;;;;19.16;100;956.785;;;;
2020/07/26 14:24:22;;;;;;;1.3;1.2;;;;;;;19.34;100;956.7719;;;;
2020/07/26 14:26:47;;;;;;;3.1;1.7;;;;;;;19.26;100;956.8113;;;;
2020/07/26 14:29:13;;;;;;;1.7;1.4;;;;;;;19.29;100;956.9634;;;;
2020/07/26 14:31:38;;;;;;;2.6;1.4;;;;;;;19.16;100;956.9875;;;;
2020/07/26 14:34:05;;;;;;;2.5;1.6;;;;;;;19.1;100;956.8663;;;;
2020/07/26 14:36:30;;;;;;;3.6;1.8;;;;;;;19.12;100;956.9016;;;;
2020/07/26 14:38:55;;;;;;;3;1.7;;;;;;;19.07;100;956.9445;;;;
2020/07/26 14:41:20;;;;;;;4;1.5;;;;;;;19.08;100;956.955;;;;
2020/07/26 14:43:48;;;;;;;3.8;1.7;;;;;;;19.17;100;956.8558;;;;
2020/07/26 14:46:13;;;;;;;2.7;1.5;;;;;;;19.31;100;956.9492;;;;
2020/07/26 14:48:40;;;;;;;1.7;1.6;;;;;;;19.44;100;956.8729;;;;
2020/07/26 14:51:04;;;;;;;2.7;1.5;;;;;;;19.59;100;956.8508;;;;
2020/07/26 14:53:30;;;;;;;2.5;1.3;;;;;;;19.68;100;956.9246;;;;
2020/07/26 14:55:55;;;;;;;3;1.7;;;;;;;19.73;100;956.9392;;;;
2020/07/26 14:58:22;;;;;;;3.1;1.7;;;;;;;19.8;100;957.0097;;;;
2020/07/26 15:00:47;;;;;;;2.3;1.6;;;;;;;19.88;100;956.9858;;;;
2020/07/26 15:03:12;;;;;;;2.3;1.4;;;;;;;20.03;100;956.9973;;;;
2020/07/26 15:05:37;;;;;;;3.5;1.6;;;;;;;20.37;100;957.0517;;;;
2020/07/26 15:08:02;;;;;;;2.4;1.6;;;;;;;20.54;100;957.0356;;;;
2020/07/26 15:10:27;;;;;;;2.2;1.4;;;;;;;20.46;100;957.077;;;;